AFN weather

Jaffrey Airport Silver Ranch Airport
Jaffrey, New Hampshire, United States

Public forecast

Using degrees Fahrenheit for public forecast. Weather courtesy of forecast.io.

Current aviation weather report (METAR) for Jaffrey Airport Silver Ranch Airport

Retrieved 2019/11/20 14:52 UTC (1 hour ago):

KAFN 201452Z AUTO 03003KT 9SM BKN006 OVC010 03/02 A2989 RMK AO2 CIG 002V009 SLP134 T00280017 53004

Closest aviation forecast (TAF) to Jaffrey Airport Silver Ranch Airport

Closest forecast is Manchester-Boston Regional Airport, 26.1 nm (48.4 km) ENE. Retrieved 2019/11/20 12:22 UTC (4 hours ago):

TAF KMHT 201120Z 2012/2112 01005KT P6SM OVC007 FM201500 35005KT 4SM -RASN BR OVC007 FM202200 34006KT 6SM BR OVC015 FM210900 34004KT P6SM SKC